tititudorancea.com
Station Historical Data
Daily Summary for February 13, 2018 Units:  Both    English   Metric
« Previous Day
Next Day »
Daily Weekly Monthly Yearly Custom
  High: Low: Average:
Temperature: TemperatureF °F /  -17.8 °C 50.0 °F /  10 °C 67 °F /  19.4 °C
Dew Point: DewpointF °F /  -17.8 °C 42.6 °F /  5.9 °C 48.5 °F /  9.2 °C
Humidity: Humidity % 26 % 57 %
Wind Speed: WindSpeedMPH mph /  0 km/h - 3.9 mph /  6.3 km/h
Wind Gust: WindSpeedGustMPH mph /  0 km/h - -
Wind:- - West
Pressure: PressureIn in /  0 hPa 29.66 in /  1004.3 hPa -
Precipitation: 0.00 in /  0 mm    
Historical Graphs
 
 
Ararat weather Find more about Weather in Ararat, AU


 



 


Tabular Data for February 13, 2018
Time Temperature Dew Point Pressure Wind Wind Speed Wind Gust Humidity Rainfall Rate (Hourly)
TemperatureF °F /  -17.8 °C DewpointF °F /  -17.8 °C PressureIn in /  0 hPa Calm     Humidity % HourlyPrecipIn in /  0 mm
00:02 57.5 °F /  14.2 °C 51.0 °F /  10.6 °C 29.89 in /  1012.1 hPa South 3.3 mph /  5.3 km/h 9.2 mph /  14.8 km/h 79 % 0.00 in /  0 mm
00:07 57.4 °F /  14.1 °C 50.9 °F /  10.5 °C 29.89 in /  1012.1 hPa South 6.8 mph /  10.9 km/h 9.2 mph /  14.8 km/h 79 % 0.00 in /  0 mm
00:12 57.4 °F /  14.1 °C 50.9 °F /  10.5 °C 29.89 in /  1012.1 hPa South 4.6 mph /  7.4 km/h 5.0 mph /  8 km/h 79 % 0.00 in /  0 mm
00:17 57.5 °F /  14.2 °C 51.0 °F /  10.6 °C 29.89 in /  1012.1 hPa South 6.6 mph /  10.6 km/h 8.1 mph /  13 km/h 79 % 0.00 in /  0 mm
00:22 57.5 °F /  14.2 °C 51.0 °F /  10.6 °C 29.89 in /  1012.1 hPa South 3.1 mph /  5 km/h 9.2 mph /  14.8 km/h 79 % 0.00 in /  0 mm
00:27 57.5 °F /  14.2 °C 51.0 °F /  10.6 °C 29.89 in /  1012.1 hPa South 6.2 mph /  10 km/h 10.4 mph /  16.7 km/h 79 % 0.00 in /  0 mm
00:32 57.4 °F /  14.1 °C 50.9 °F /  10.5 °C 29.88 in /  1011.7 hPa North 5.0 mph /  8 km/h 9.0 mph /  14.5 km/h 79 % 0.00 in /  0 mm
00:37 57.4 °F /  14.1 °C 50.9 °F /  10.5 °C 29.89 in /  1012.1 hPa North 3.9 mph /  6.3 km/h 7.0 mph /  11.3 km/h 79 % 0.00 in /  0 mm
00:42 57.2 °F /  14 °C 50.7 °F /  10.4 °C 29.88 in /  1011.7 hPa South 4.1 mph /  6.6 km/h 6.0 mph /  9.7 km/h 79 % 0.00 in /  0 mm
00:47 57.1 °F /  13.9 °C 50.6 °F /  10.3 °C 29.88 in /  1011.7 hPa South 4.1 mph /  6.6 km/h 6.0 mph /  9.7 km/h 79 % 0.00 in /  0 mm
00:52 57.0 °F /  13.9 °C 50.9 °F /  10.5 °C 29.88 in /  1011.7 hPa South 5.1 mph /  8.2 km/h 6.0 mph /  9.7 km/h 80 % 0.00 in /  0 mm
00:58 56.8 °F /  13.8 °C 50.7 °F /  10.4 °C 29.88 in /  1011.7 hPa South 4.9 mph /  7.9 km/h 6.9 mph /  11.1 km/h 80 % 0.00 in /  0 mm
01:03 56.7 °F /  13.7 °C 50.6 °F /  10.3 °C 29.88 in /  1011.7 hPa South 3.3 mph /  5.3 km/h 6.9 mph /  11.1 km/h 80 % 0.00 in /  0 mm
01:07 56.5 °F /  13.6 °C 50.4 °F /  10.2 °C 29.88 in /  1011.7 hPa South 2.3 mph /  3.7 km/h 3.5 mph /  5.6 km/h 80 % 0.00 in /  0 mm
01:12 56.3 °F /  13.5 °C 50.2 °F /  10.1 °C 29.88 in /  1011.7 hPa South 2.4 mph /  3.9 km/h 4.6 mph /  7.4 km/h 80 % 0.00 in /  0 mm
01:17 56.1 °F /  13.4 °C 50.3 °F /  10.2 °C 29.88 in /  1011.7 hPa South 4.9 mph /  7.9 km/h 4.9 mph /  7.9 km/h 81 % 0.00 in /  0 mm
01:23 56.1 °F /  13.4 °C 50.3 °F /  10.2 °C 29.88 in /  1011.7 hPa South 2.7 mph /  4.3 km/h 8.1 mph /  13 km/h 81 % 0.00 in /  0 mm
01:27 56.1 °F /  13.4 °C 50.3 °F /  10.2 °C 29.88 in /  1011.7 hPa South 2.4 mph /  3.9 km/h 3.5 mph /  5.6 km/h 81 % 0.00 in /  0 mm
01:33 56.0 °F /  13.3 °C 50.3 °F /  10.2 °C 29.88 in /  1011.7 hPa South 2.6 mph /  4.2 km/h 5.8 mph /  9.3 km/h 81 % 0.00 in /  0 mm
01:38 55.9 °F /  13.3 °C 50.2 °F /  10.1 °C 29.87 in /  1011.4 hPa South 2.2 mph /  3.5 km/h 5.8 mph /  9.3 km/h 81 % 0.00 in /  0 mm
01:43 55.7 °F /  13.2 °C 50.0 °F /  10 °C 29.87 in /  1011.4 hPa South 2.1 mph /  3.4 km/h 3.5 mph /  5.6 km/h 81 % 0.00 in /  0 mm
01:48 55.5 °F /  13.1 °C 50.1 °F /  10.1 °C 29.87 in /  1011.4 hPa North 2.5 mph /  4 km/h 4.6 mph /  7.4 km/h 82 % 0.00 in /  0 mm
01:52 55.2 °F /  12.9 °C 49.8 °F /  9.9 °C 29.87 in /  1011.4 hPa South 2.1 mph /  3.4 km/h 3.5 mph /  5.6 km/h 82 % 0.00 in /  0 mm
01:57 54.9 °F /  12.7 °C 49.8 °F /  9.9 °C 29.87 in /  1011.4 hPa South 2.6 mph /  4.2 km/h 4.0 mph /  6.4 km/h 83 % 0.00 in /  0 mm
02:03 54.8 °F /  12.7 °C 49.7 °F /  9.8 °C 29.87 in /  1011.4 hPa South 1.7 mph /  2.7 km/h 4.6 mph /  7.4 km/h 83 % 0.00 in /  0 mm
02:07 54.8 °F /  12.7 °C 50.1 °F /  10.1 °C 29.87 in /  1011.4 hPa North 3.1 mph /  5 km/h 4.6 mph /  7.4 km/h 84 % 0.00 in /  0 mm
02:13 54.8 °F /  12.7 °C 50.1 °F /  10.1 °C 29.87 in /  1011.4 hPa South 4.2 mph /  6.8 km/h 6.0 mph /  9.7 km/h 84 % 0.00 in /  0 mm
02:18 55.0 °F /  12.8 °C 50.3 °F /  10.2 °C 29.87 in /  1011.4 hPa South 2.6 mph /  4.2 km/h 3.5 mph /  5.6 km/h 84 % 0.00 in /  0 mm
02:23 55.0 °F /  12.8 °C 50.3 °F /  10.2 °C 29.87 in /  1011.4 hPa North 1.6 mph /  2.6 km/h 4.6 mph /  7.4 km/h 84 % 0.00 in /  0 mm
02:28 55.1 °F /  12.8 °C 50.4 °F /  10.2 °C 29.87 in /  1011.4 hPa South 3.0 mph /  4.8 km/h 4.6 mph /  7.4 km/h 84 % 0.00 in /  0 mm
02:33 55.1 °F /  12.8 °C 50.4 °F /  10.2 °C 29.87 in /  1011.4 hPa South 1.6 mph /  2.6 km/h 4.6 mph /  7.4 km/h 84 % 0.00 in /  0 mm
02:38 55.0 °F /  12.8 °C 50.3 °F /  10.2 °C 29.87 in /  1011.4 hPa South 1.4 mph /  2.3 km/h 2.3 mph /  3.7 km/h 84 % 0.00 in /  0 mm
02:43 54.9 °F /  12.7 °C 50.2 °F /  10.1 °C 29.87 in /  1011.4 hPa South 1.7 mph /  2.7 km/h 3.5 mph /  5.6 km/h 84 % 0.00 in /  0 mm
02:48 54.8 °F /  12.7 °C 50.1 °F /  10.1 °C 29.87 in /  1011.4 hPa South 1.3 mph /  2.1 km/h 3.5 mph /  5.6 km/h 84 % 0.00 in /  0 mm
02:53 54.7 °F /  12.6 °C 50.3 °F /  10.2 °C 29.86 in /  1011.1 hPa South 1.6 mph /  2.6 km/h 3.5 mph /  5.6 km/h 85 % 0.00 in /  0 mm
02:58 54.5 °F /  12.5 °C 50.1 °F /  10.1 °C 29.86 in /  1011.1 hPa South 1.3 mph /  2.1 km/h 3.5 mph /  5.6 km/h 85 % 0.00 in /  0 mm
03:03 54.4 °F /  12.4 °C 50.0 °F /  10 °C 29.86 in /  1011.1 hPa Calm   1.2 mph /  1.9 km/h 85 % 0.00 in /  0 mm
03:08 54.3 °F /  12.4 °C 49.9 °F /  9.9 °C 29.86 in /  1011.1 hPa Calm     85 % 0.00 in /  0 mm
03:13 54.1 °F /  12.3 °C 49.7 °F /  9.8 °C 29.86 in /  1011.1 hPa South 1.8 mph /  2.9 km/h 3.5 mph /  5.6 km/h 85 % 0.00 in /  0 mm
03:18 54.0 °F /  12.2 °C 49.9 °F /  9.9 °C 29.86 in /  1011.1 hPa South 0.6 mph /  1 km/h 2.3 mph /  3.7 km/h 86 % 0.00 in /  0 mm
03:23 53.9 °F /  12.2 °C 49.8 °F /  9.9 °C 29.85 in /  1010.7 hPa South 1.6 mph /  2.6 km/h 2.3 mph /  3.7 km/h 86 % 0.00 in /  0 mm
03:28 53.8 °F /  12.1 °C 49.7 °F /  9.8 °C 29.85 in /  1010.7 hPa South 2.5 mph /  4 km/h 3.5 mph /  5.6 km/h 86 % 0.00 in /  0 mm
03:33 53.7 °F /  12.1 °C 49.9 °F /  9.9 °C 29.85 in /  1010.7 hPa South 2.9 mph /  4.7 km/h 3.5 mph /  5.6 km/h 87 % 0.00 in /  0 mm
03:38 53.5 °F /  11.9 °C 49.4 °F /  9.7 °C 29.86 in /  1011.1 hPa South 2.9 mph /  4.7 km/h 4.6 mph /  7.4 km/h 86 % 0.00 in /  0 mm
03:43 53.5 °F /  11.9 °C 49.7 °F /  9.8 °C 29.86 in /  1011.1 hPa North 2.8 mph /  4.5 km/h 3.5 mph /  5.6 km/h 87 % 0.00 in /  0 mm
03:48 53.5 °F /  11.9 °C 50.0 °F /  10 °C 29.85 in /  1010.7 hPa South 3.3 mph /  5.3 km/h 3.5 mph /  5.6 km/h 88 % 0.00 in /  0 mm
03:53 53.4 °F /  11.9 °C 49.9 °F /  9.9 °C 29.85 in /  1010.7 hPa North 1.9 mph /  3.1 km/h 3.5 mph /  5.6 km/h 88 % 0.00 in /  0 mm
03:58 53.2 °F /  11.8 °C 49.4 °F /  9.7 °C 29.85 in /  1010.7 hPa North 2.1 mph /  3.4 km/h 3.5 mph /  5.6 km/h 87 % 0.00 in /  0 mm
04:03 53.0 °F /  11.7 °C 49.5 °F /  9.7 °C 29.85 in /  1010.7 hPa South 2.2 mph /  3.5 km/h 3.5 mph /  5.6 km/h 88 % 0.00 in /  0 mm
04:08 52.9 °F /  11.6 °C 49.4 °F /  9.7 °C 29.85 in /  1010.7 hPa North 2.1 mph /  3.4 km/h 3.5 mph /  5.6 km/h 88 % 0.00 in /  0 mm
04:13 52.8 °F /  11.6 °C 49.3 °F /  9.6 °C 29.84 in /  1010.4 hPa North 2.1 mph /  3.4 km/h 3.5 mph /  5.6 km/h 88 % 0.00 in /  0 mm
04:18 52.8 °F /  11.6 °C 49.6 °F /  9.8 °C 29.84 in /  1010.4 hPa North 1.8 mph /  2.9 km/h 3.5 mph /  5.6 km/h 89 % 0.00 in /  0 mm
04:23 52.8 °F /  11.6 °C 49.6 °F /  9.8 °C 29.84 in /  1010.4 hPa South 3.2 mph /  5.1 km/h 4.0 mph /  6.4 km/h 89 % 0.00 in /  0 mm
04:28 52.9 °F /  11.6 °C 49.7 °F /  9.8 °C 29.84 in /  1010.4 hPa South 3.1 mph /  5 km/h 3.5 mph /  5.6 km/h 89 % 0.00 in /  0 mm
04:33 52.9 °F /  11.6 °C 49.7 °F /  9.8 °C 29.84 in /  1010.4 hPa North 2.0 mph /  3.2 km/h 2.3 mph /  3.7 km/h 89 % 0.00 in /  0 mm
04:38 53.0 °F /  11.7 °C 49.8 °F /  9.9 °C 29.84 in /  1010.4 hPa North 2.0 mph /  3.2 km/h 3.5 mph /  5.6 km/h 89 % 0.00 in /  0 mm
04:43 53.0 °F /  11.7 °C 49.8 °F /  9.9 °C 29.84 in /  1010.4 hPa South 2.3 mph /  3.7 km/h 3.5 mph /  5.6 km/h 89 % 0.00 in /  0 mm
04:48 53.0 °F /  11.7 °C 49.8 °F /  9.9 °C 29.84 in /  1010.4 hPa South 1.3 mph /  2.1 km/h 2.3 mph /  3.7 km/h 89 % 0.00 in /  0 mm
04:53 53.0 °F /  11.7 °C 49.8 °F /  9.9 °C 29.84 in /  1010.4 hPa North 2.4 mph /  3.9 km/h 3.0 mph /  4.8 km/h 89 % 0.00 in /  0 mm
04:58 52.9 °F /  11.6 °C 49.7 °F /  9.8 °C 29.84 in /  1010.4 hPa North 2.1 mph /  3.4 km/h 3.5 mph /  5.6 km/h 89 % 0.00 in /  0 mm
05:03 52.7 °F /  11.5 °C 49.5 °F /  9.7 °C 29.84 in /  1010.4 hPa North 1.7 mph /  2.7 km/h 2.3 mph /  3.7 km/h 89 % 0.00 in /  0 mm
05:08 52.6 °F /  11.4 °C 49.4 °F /  9.7 °C 29.83 in /  1010 hPa South 2.2 mph /  3.5 km/h 3.0 mph /  4.8 km/h 89 % 0.00 in /  0 mm
05:13 52.5 °F /  11.4 °C 49.7 °F /  9.8 °C 29.84 in /  1010.4 hPa North 1.1 mph /  1.8 km/h 2.3 mph /  3.7 km/h 90 % 0.00 in /  0 mm
05:18 52.5 °F /  11.4 °C 49.7 °F /  9.8 °C 29.84 in /  1010.4 hPa Calm   1.2 mph /  1.9 km/h 90 % 0.00 in /  0 mm
05:23 52.3 °F /  11.3 °C 49.5 °F /  9.7 °C 29.83 in /  1010 hPa Calm   1.2 mph /  1.9 km/h 90 % 0.00 in /  0 mm
05:28 52.3 °F /  11.3 °C 49.5 °F /  9.7 °C 29.83 in /  1010 hPa Calm     90 % 0.00 in /  0 mm
05:33 52.2 °F /  11.2 °C 49.4 °F /  9.7 °C 29.84 in /  1010.4 hPa Calm     90 % 0.00 in /  0 mm
05:38 52.0 °F /  11.1 °C 49.2 °F /  9.6 °C 29.84 in /  1010.4 hPa Calm     90 % 0.00 in /  0 mm
05:43 51.9 °F /  11.1 °C 49.1 °F /  9.5 °C 29.84 in /  1010.4 hPa Calm     90 % 0.00 in /  0 mm
05:48 51.7 °F /  10.9 °C 48.9 °F /  9.4 °C 29.84 in /  1010.4 hPa Calm     90 % 0.00 in /  0 mm
05:53 51.4 °F /  10.8 °C 48.6 °F /  9.2 °C 29.84 in /  1010.4 hPa Calm     90 % 0.00 in /  0 mm
05:58 51.4 °F /  10.8 °C 48.9 °F /  9.4 °C 29.84 in /  1010.4 hPa Calm     91 % 0.00 in /  0 mm
06:03 51.4 °F /  10.8 °C 48.9 °F /  9.4 °C 29.84 in /  1010.4 hPa Calm     91 % 0.00 in /  0 mm
06:08 51.4 °F /  10.8 °C 48.9 °F /  9.4 °C 29.84 in /  1010.4 hPa Calm     91 % 0.00 in /  0 mm
06:13 51.4 °F /  10.8 °C 48.9 °F /  9.4 °C 29.84 in /  1010.4 hPa Calm     91 % 0.00 in /  0 mm
06:18 51.4 °F /  10.8 °C 49.2 °F /  9.6 °C 29.84 in /  1010.4 hPa Calm     92 % 0.00 in /  0 mm
06:23 51.4 °F /  10.8 °C 49.2 °F /  9.6 °C 29.84 in /  1010.4 hPa Calm     92 % 0.00 in /  0 mm
06:28 51.4 °F /  10.8 °C 49.2 °F /  9.6 °C 29.84 in /  1010.4 hPa Calm     92 % 0.00 in /  0 mm
06:33 51.3 °F /  10.7 °C 49.1 °F /  9.5 °C 29.85 in /  1010.7 hPa Calm     92 % 0.00 in /  0 mm
06:38 51.2 °F /  10.7 °C 49.0 °F /  9.4 °C 29.85 in /  1010.7 hPa Calm     92 % 0.00 in /  0 mm
06:43 51.1 °F /  10.6 °C 48.9 °F /  9.4 °C 29.84 in /  1010.4 hPa Calm     92 % 0.00 in /  0 mm
06:48 50.8 °F /  10.4 °C 48.6 °F /  9.2 °C 29.84 in /  1010.4 hPa Calm     92 % 0.00 in /  0 mm
06:53 50.6 °F /  10.3 °C 48.4 °F /  9.1 °C 29.84 in /  1010.4 hPa Calm     92 % 0.00 in /  0 mm
06:58 50.5 °F /  10.3 °C 48.3 °F /  9.1 °C 29.85 in /  1010.7 hPa Calm     92 % 0.00 in /  0 mm
07:36 50.0 °F /  10 °C 48.1 °F /  8.9 °C 29.86 in /  1011.1 hPa Calm     93 % 0.00 in /  0 mm
07:41 50.1 °F /  10.1 °C 48.2 °F /  9 °C 29.86 in /  1011.1 hPa Calm     93 % 0.00 in /  0 mm
07:46 50.4 °F /  10.2 °C 48.5 °F /  9.2 °C 29.86 in /  1011.1 hPa Calm     93 % 0.00 in /  0 mm
07:52 50.8 °F /  10.4 °C 49.1 °F /  9.5 °C 29.87 in /  1011.4 hPa Calm     94 % 0.00 in /  0 mm
07:57 51.2 °F /  10.7 °C 49.5 °F /  9.7 °C 29.86 in /  1011.1 hPa Calm     94 % 0.00 in /  0 mm
08:02 52.1 °F /  11.2 °C 50.7 °F /  10.4 °C 29.87 in /  1011.4 hPa Calm     95 % 0.00 in /  0 mm
08:07 53.4 °F /  11.9 °C 52.0 °F /  11.1 °C 29.87 in /  1011.4 hPa Calm     95 % 0.00 in /  0 mm
08:12 54.7 °F /  12.6 °C 53.3 °F /  11.8 °C 29.87 in /  1011.4 hPa Calm     95 % 0.00 in /  0 mm
08:17 55.4 °F /  13 °C 53.7 °F /  12.1 °C 29.87 in /  1011.4 hPa South 0.1 mph /  0.2 km/h 1.0 mph /  1.6 km/h 94 % 0.00 in /  0 mm
08:22 55.7 °F /  13.2 °C 53.4 °F /  11.9 °C 29.87 in /  1011.4 hPa North 1.6 mph /  2.6 km/h 3.5 mph /  5.6 km/h 92 % 0.00 in /  0 mm
08:27 56.0 °F /  13.3 °C 53.7 °F /  12.1 °C 29.86 in /  1011.1 hPa South 0.6 mph /  1 km/h 2.3 mph /  3.7 km/h 92 % 0.00 in /  0 mm
08:32 56.5 °F /  13.6 °C 53.6 °F /  12 °C 29.87 in /  1011.4 hPa South 2.2 mph /  3.5 km/h 3.5 mph /  5.6 km/h 90 % 0.00 in /  0 mm
08:37 56.8 °F /  13.8 °C 54.5 °F /  12.5 °C 29.87 in /  1011.4 hPa South 1.8 mph /  2.9 km/h 3.5 mph /  5.6 km/h 92 % 0.00 in /  0 mm
08:42 57.2 °F /  14 °C 53.7 °F /  12.1 °C 29.86 in /  1011.1 hPa South 1.3 mph /  2.1 km/h 3.0 mph /  4.8 km/h 88 % 0.00 in /  0 mm
08:47 57.5 °F /  14.2 °C 54.0 °F /  12.2 °C 29.87 in /  1011.4 hPa South 1.9 mph /  3.1 km/h 2.3 mph /  3.7 km/h 88 % 0.00 in /  0 mm
08:52 58.2 °F /  14.6 °C 54.3 °F /  12.4 °C 29.87 in /  1011.4 hPa Calm     87 % 0.00 in /  0 mm
08:57 58.9 °F /  14.9 °C 54.1 °F /  12.3 °C 29.87 in /  1011.4 hPa South 0.5 mph /  0.8 km/h 2.3 mph /  3.7 km/h 84 % 0.00 in /  0 mm
09:02 59.0 °F /  15 °C 53.8 °F /  12.1 °C 29.87 in /  1011.4 hPa South 1.1 mph /  1.8 km/h 2.3 mph /  3.7 km/h 83 % 0.00 in /  0 mm
09:07 59.4 °F /  15.2 °C 54.2 °F /  12.3 °C 29.87 in /  1011.4 hPa Calm     83 % 0.00 in /  0 mm
09:12 59.8 °F /  15.4 °C 54.0 °F /  12.2 °C 29.87 in /  1011.4 hPa Calm     81 % 0.00 in /  0 mm
09:17 60.4 °F /  15.8 °C 54.2 °F /  12.3 °C 29.87 in /  1011.4 hPa South 0.9 mph /  1.4 km/h 2.3 mph /  3.7 km/h 80 % 0.00 in /  0 mm
09:22 61.4 °F /  16.3 °C 54.5 °F /  12.5 °C 29.87 in /  1011.4 hPa South 1.6 mph /  2.6 km/h 3.5 mph /  5.6 km/h 78 % 0.00 in /  0 mm
09:27 62.3 °F /  16.8 °C 53.9 °F /  12.2 °C 29.87 in /  1011.4 hPa South 0.5 mph /  0.8 km/h 1.2 mph /  1.9 km/h 74 % 0.00 in /  0 mm
09:32 63.0 °F /  17.2 °C 54.2 °F /  12.3 °C 29.87 in /  1011.4 hPa South 0.9 mph /  1.4 km/h 3.5 mph /  5.6 km/h 73 % 0.00 in /  0 mm
09:37 63.8 °F /  17.7 °C 54.6 °F /  12.6 °C 29.87 in /  1011.4 hPa Calm   2.0 mph /  3.2 km/h 72 % 0.00 in /  0 mm
09:42 65.4 °F /  18.6 °C 54.2 °F /  12.3 °C 29.87 in /  1011.4 hPa South 3.4 mph /  5.5 km/h 3.5 mph /  5.6 km/h 67 % 0.00 in /  0 mm
09:47 66.0 °F /  18.9 °C 53.9 °F /  12.2 °C 29.86 in /  1011.1 hPa South 2.5 mph /  4 km/h 4.0 mph /  6.4 km/h 65 % 0.00 in /  0 mm
09:52 66.4 °F /  19.1 °C 53.0 °F /  11.7 °C 29.86 in /  1011.1 hPa South 2.2 mph /  3.5 km/h 3.0 mph /  4.8 km/h 62 % 0.00 in /  0 mm
09:57 66.8 °F /  19.3 °C 52.9 °F /  11.6 °C 29.86 in /  1011.1 hPa South 2.4 mph /  3.9 km/h 5.8 mph /  9.3 km/h 61 % 0.00 in /  0 mm
10:02 66.9 °F /  19.4 °C 52.6 °F /  11.4 °C 29.86 in /  1011.1 hPa South 2.3 mph /  3.7 km/h 3.5 mph /  5.6 km/h 60 % 0.00 in /  0 mm
10:07 67.2 °F /  19.6 °C 52.8 °F /  11.6 °C 29.86 in /  1011.1 hPa South 2.5 mph /  4 km/h 3.5 mph /  5.6 km/h 60 % 0.00 in /  0 mm
10:12 67.5 °F /  19.7 °C 53.1 °F /  11.7 °C 29.86 in /  1011.1 hPa Calm   1.2 mph /  1.9 km/h 60 % 0.00 in /  0 mm
10:17 68.2 °F /  20.1 °C 52.9 °F /  11.6 °C 29.86 in /  1011.1 hPa South 1.4 mph /  2.3 km/h 3.5 mph /  5.6 km/h 58 % 0.00 in /  0 mm
10:22 68.6 °F /  20.3 °C 53.2 °F /  11.8 °C 29.86 in /  1011.1 hPa South 1.3 mph /  2.1 km/h 3.5 mph /  5.6 km/h 58 % 0.00 in /  0 mm
10:27 68.8 °F /  20.4 °C 52.0 °F /  11.1 °C 29.87 in /  1011.4 hPa South 2.6 mph /  4.2 km/h 4.0 mph /  6.4 km/h 55 % 0.00 in /  0 mm
10:32 68.7 °F /  20.4 °C 52.4 °F /  11.3 °C 29.86 in /  1011.1 hPa South 1.3 mph /  2.1 km/h 2.3 mph /  3.7 km/h 56 % 0.00 in /  0 mm
10:37 69.0 °F /  20.6 °C 52.6 °F /  11.4 °C 29.86 in /  1011.1 hPa South 2.9 mph /  4.7 km/h 5.0 mph /  8 km/h 56 % 0.00 in /  0 mm
10:42 69.8 °F /  21 °C 51.9 °F /  11.1 °C 29.86 in /  1011.1 hPa NNE 5.9 mph /  9.5 km/h 8.0 mph /  12.9 km/h 53 % 0.00 in /  0 mm
10:47 70.7 °F /  21.5 °C 51.7 °F /  10.9 °C 29.86 in /  1011.1 hPa NNE 4.9 mph /  7.9 km/h 6.9 mph /  11.1 km/h 51 % 0.00 in /  0 mm
10:52 71.2 °F /  21.8 °C 51.1 °F /  10.6 °C 29.86 in /  1011.1 hPa NNW 6.8 mph /  10.9 km/h 11.5 mph /  18.5 km/h 49 % 0.00 in /  0 mm
10:57 70.7 °F /  21.5 °C 50.6 °F /  10.3 °C 29.86 in /  1011.1 hPa North 3.1 mph /  5 km/h 5.8 mph /  9.3 km/h 49 % 0.00 in /  0 mm
11:02 70.5 °F /  21.4 °C 51.0 °F /  10.6 °C 29.86 in /  1011.1 hPa NNW 4.2 mph /  6.8 km/h 6.9 mph /  11.1 km/h 50 % 0.00 in /  0 mm
11:07 71.1 °F /  21.7 °C 50.4 °F /  10.2 °C 29.86 in /  1011.1 hPa NW 3.4 mph /  5.5 km/h 5.0 mph /  8 km/h 48 % 0.00 in /  0 mm
11:12 71.7 °F /  22.1 °C 51.0 °F /  10.6 °C 29.85 in /  1010.7 hPa WNW 5.6 mph /  9 km/h 9.2 mph /  14.8 km/h 48 % 0.00 in /  0 mm
11:17 72.3 °F /  22.4 °C 50.4 °F /  10.2 °C 29.85 in /  1010.7 hPa NNW 6.3 mph /  10.1 km/h 10.4 mph /  16.7 km/h 46 % 0.00 in /  0 mm
11:22 71.9 °F /  22.2 °C 50.6 °F /  10.3 °C 29.85 in /  1010.7 hPa North 3.4 mph /  5.5 km/h 5.8 mph /  9.3 km/h 47 % 0.00 in /  0 mm
11:27 71.4 °F /  21.9 °C 50.7 °F /  10.4 °C 29.85 in /  1010.7 hPa WNW 6.5 mph /  10.5 km/h 8.1 mph /  13 km/h 48 % 0.00 in /  0 mm
11:32 71.0 °F /  21.7 °C 50.3 °F /  10.2 °C 29.85 in /  1010.7 hPa NW 7.5 mph /  12.1 km/h 11.5 mph /  18.5 km/h 48 % 0.00 in /  0 mm
11:37 72.0 °F /  22.2 °C 50.7 °F /  10.4 °C 29.85 in /  1010.7 hPa NW 3.2 mph /  5.1 km/h 7.0 mph /  11.3 km/h 47 % 0.00 in /  0 mm
11:42 71.6 °F /  22 °C 49.7 °F /  9.8 °C 29.85 in /  1010.7 hPa NW 4.5 mph /  7.2 km/h 6.9 mph /  11.1 km/h 46 % 0.00 in /  0 mm
11:47 72.5 °F /  22.5 °C 50.5 °F /  10.3 °C 29.84 in /  1010.4 hPa NNW 4.6 mph /  7.4 km/h 8.1 mph /  13 km/h 46 % 0.00 in /  0 mm
11:52 73.3 °F /  22.9 °C 50.7 °F /  10.4 °C 29.84 in /  1010.4 hPa NW 6.1 mph /  9.8 km/h 11.0 mph /  17.7 km/h 45 % 0.00 in /  0 mm
11:57 73.1 °F /  22.8 °C 50.5 °F /  10.3 °C 29.84 in /  1010.4 hPa WNW 8.9 mph /  14.3 km/h 10.4 mph /  16.7 km/h 45 % 0.00 in /  0 mm
12:02 72.9 °F /  22.7 °C 50.3 °F /  10.2 °C 29.84 in /  1010.4 hPa North 5.5 mph /  8.9 km/h 6.0 mph /  9.7 km/h 45 % 0.00 in /  0 mm
12:07 72.8 °F /  22.7 °C 50.2 °F /  10.1 °C 29.84 in /  1010.4 hPa NW 3.6 mph /  5.8 km/h 6.9 mph /  11.1 km/h 45 % 0.00 in /  0 mm
12:12 72.8 °F /  22.7 °C 50.2 °F /  10.1 °C 29.83 in /  1010 hPa North 3.9 mph /  6.3 km/h 8.1 mph /  13 km/h 45 % 0.00 in /  0 mm
12:17 73.6 °F /  23.1 °C 49.7 °F /  9.8 °C 29.83 in /  1010 hPa WNW 5.9 mph /  9.5 km/h 10.4 mph /  16.7 km/h 43 % 0.00 in /  0 mm
12:22 74.7 °F /  23.7 °C 50.1 °F /  10.1 °C 29.83 in /  1010 hPa NNW 5.9 mph /  9.5 km/h 9.2 mph /  14.8 km/h 42 % 0.00 in /  0 mm
12:27 74.3 °F /  23.5 °C 49.7 °F /  9.8 °C 29.83 in /  1010 hPa NNW 4.9 mph /  7.9 km/h 8.1 mph /  13 km/h 42 % 0.00 in /  0 mm
12:32 75.0 °F /  23.9 °C 49.7 °F /  9.8 °C 29.83 in /  1010 hPa NNW 8.8 mph /  14.2 km/h 10.0 mph /  16.1 km/h 41 % 0.00 in /  0 mm
12:37 74.7 °F /  23.7 °C 48.8 °F /  9.3 °C 29.83 in /  1010 hPa WNW 9.2 mph /  14.8 km/h 11.5 mph /  18.5 km/h 40 % 0.00 in /  0 mm
12:42 74.2 °F /  23.4 °C 49.0 °F /  9.4 °C 29.83 in /  1010 hPa North 1.5 mph /  2.4 km/h 4.6 mph /  7.4 km/h 41 % 0.00 in /  0 mm
12:47 74.7 °F /  23.7 °C 48.8 °F /  9.3 °C 29.82 in /  1009.7 hPa NNW 6.3 mph /  10.1 km/h 8.1 mph /  13 km/h 40 % 0.00 in /  0 mm
12:52 74.9 °F /  23.8 °C 48.9 °F /  9.4 °C 29.82 in /  1009.7 hPa North 6.5 mph /  10.5 km/h 8.1 mph /  13 km/h 40 % 0.00 in /  0 mm
12:57 74.7 °F /  23.7 °C 48.1 °F /  8.9 °C 29.82 in /  1009.7 hPa NW 9.4 mph /  15.1 km/h 11.5 mph /  18.5 km/h 39 % 0.00 in /  0 mm
13:02 74.7 °F /  23.7 °C 48.8 °F /  9.3 °C 29.81 in /  1009.4 hPa WNW 7.5 mph /  12.1 km/h 11.5 mph /  18.5 km/h 40 % 0.00 in /  0 mm
13:07 75.4 °F /  24.1 °C 48.7 °F /  9.3 °C 29.81 in /  1009.4 hPa WNW 3.7 mph /  6 km/h 5.8 mph /  9.3 km/h 39 % 0.00 in /  0 mm
13:12 76.0 °F /  24.4 °C 49.2 °F /  9.6 °C 29.81 in /  1009.4 hPa NW 9.5 mph /  15.3 km/h 11.5 mph /  18.5 km/h 39 % 0.00 in /  0 mm
13:17 75.6 °F /  24.2 °C 48.2 °F /  9 °C 29.81 in /  1009.4 hPa West 7.8 mph /  12.6 km/h 13.0 mph /  20.9 km/h 38 % 0.00 in /  0 mm
13:22 76.1 °F /  24.5 °C 47.9 °F /  8.8 °C 29.81 in /  1009.4 hPa NW 7.6 mph /  12.2 km/h 9.2 mph /  14.8 km/h 37 % 0.00 in /  0 mm
13:27 75.6 °F /  24.2 °C 48.2 °F /  9 °C 29.81 in /  1009.4 hPa NW 5.5 mph /  8.9 km/h 10.4 mph /  16.7 km/h 38 % 0.00 in /  0 mm
13:32 75.6 °F /  24.2 °C 48.2 °F /  9 °C 29.80 in /  1009 hPa North 6.2 mph /  10 km/h 10.4 mph /  16.7 km/h 38 % 0.00 in /  0 mm
13:37 75.9 °F /  24.4 °C 48.5 °F /  9.2 °C 29.80 in /  1009 hPa North 4.9 mph /  7.9 km/h 9.2 mph /  14.8 km/h 38 % 0.00 in /  0 mm
13:42 76.7 °F /  24.8 °C 48.5 °F /  9.2 °C 29.80 in /  1009 hPa North 8.2 mph /  13.2 km/h 12.7 mph /  20.4 km/h 37 % 0.00 in /  0 mm
13:47 76.6 °F /  24.8 °C 49.1 °F /  9.5 °C 29.79 in /  1008.7 hPa North 3.4 mph /  5.5 km/h 7.0 mph /  11.3 km/h 38 % 0.00 in /  0 mm
13:52 77.2 °F /  25.1 °C 48.2 °F /  9 °C 29.79 in /  1008.7 hPa North 8.4 mph /  13.5 km/h 9.0 mph /  14.5 km/h 36 % 0.00 in /  0 mm
13:57 76.9 °F /  24.9 °C 48.6 °F /  9.2 °C 29.79 in /  1008.7 hPa North 1.2 mph /  1.9 km/h 3.5 mph /  5.6 km/h 37 % 0.00 in /  0 mm
14:02 77.9 °F /  25.5 °C 48.0 °F /  8.9 °C 29.79 in /  1008.7 hPa West 10.0 mph /  16.1 km/h 16.1 mph /  25.9 km/h 35 % 0.00 in /  0 mm
14:07 77.3 °F /  25.2 °C 48.3 °F /  9.1 °C 29.79 in /  1008.7 hPa WNW 5.9 mph /  9.5 km/h 11.5 mph /  18.5 km/h 36 % 0.00 in /  0 mm
14:12 77.6 °F /  25.3 °C 48.5 °F /  9.2 °C 29.79 in /  1008.7 hPa NW 7.6 mph /  12.2 km/h 11.5 mph /  18.5 km/h 36 % 0.00 in /  0 mm
14:17 78.1 °F /  25.6 °C 48.2 °F /  9 °C 29.78 in /  1008.4 hPa NE 6.7 mph /  10.8 km/h 11.5 mph /  18.5 km/h 35 % 0.00 in /  0 mm
14:22 78.1 °F /  25.6 °C 47.4 °F /  8.6 °C 29.78 in /  1008.4 hPa NW 5.2 mph /  8.4 km/h 11.5 mph /  18.5 km/h 34 % 0.00 in /  0 mm
14:27 78.3 °F /  25.7 °C 48.4 °F /  9.1 °C 29.78 in /  1008.4 hPa WNW 9.4 mph /  15.1 km/h 12.7 mph /  20.4 km/h 35 % 0.00 in /  0 mm
14:32 78.6 °F /  25.9 °C 48.7 °F /  9.3 °C 29.78 in /  1008.4 hPa North 8.6 mph /  13.8 km/h 11.5 mph /  18.5 km/h 35 % 0.00 in /  0 mm
14:37 78.6 °F /  25.9 °C 47.1 °F /  8.4 °C 29.78 in /  1008.4 hPa WNW 4.4 mph /  7.1 km/h 11.5 mph /  18.5 km/h 33 % 0.00 in /  0 mm
14:42 79.1 °F /  26.2 °C 48.3 °F /  9.1 °C 29.77 in /  1008 hPa NW 5.5 mph /  8.9 km/h 8.0 mph /  12.9 km/h 34 % 0.00 in /  0 mm
14:47 79.2 °F /  26.2 °C 47.6 °F /  8.7 °C 29.77 in /  1008 hPa NW 6.1 mph /  9.8 km/h 7.0 mph /  11.3 km/h 33 % 0.00 in /  0 mm
14:52 79.5 °F /  26.4 °C 47.9 °F /  8.8 °C 29.77 in /  1008 hPa North 8.2 mph /  13.2 km/h 13.8 mph /  22.2 km/h 33 % 0.00 in /  0 mm
14:57 79.8 °F /  26.6 °C 47.3 °F /  8.5 °C 29.77 in /  1008 hPa NW 3.9 mph /  6.3 km/h 8.0 mph /  12.9 km/h 32 % 0.00 in /  0 mm
15:02 79.3 °F /  26.3 °C 47.7 °F /  8.7 °C 29.77 in /  1008 hPa North 3.9 mph /  6.3 km/h 15.0 mph /  24.1 km/h 33 % 0.00 in /  0 mm
15:07 79.0 °F /  26.1 °C 45.8 °F /  7.7 °C 29.77 in /  1008 hPa WNW 13.6 mph /  21.9 km/h 19.6 mph /  31.5 km/h 31 % 0.00 in /  0 mm
15:12 79.0 °F /  26.1 °C 46.6 °F /  8.1 °C 29.76 in /  1007.7 hPa NW 7.3 mph /  11.7 km/h 12.7 mph /  20.4 km/h 32 % 0.00 in /  0 mm
15:17 79.2 °F /  26.2 °C 47.6 °F /  8.7 °C 29.76 in /  1007.7 hPa WNW 8.9 mph /  14.3 km/h 10.4 mph /  16.7 km/h 33 % 0.00 in /  0 mm
15:22 79.6 °F /  26.4 °C 47.1 °F /  8.4 °C 29.76 in /  1007.7 hPa North 5.3 mph /  8.5 km/h 11.5 mph /  18.5 km/h 32 % 0.00 in /  0 mm
15:27 79.8 °F /  26.6 °C 47.3 °F /  8.5 °C 29.76 in /  1007.7 hPa NNW 8.0 mph /  12.9 km/h 11.5 mph /  18.5 km/h 32 % 0.00 in /  0 mm
15:32 79.0 °F /  26.1 °C 46.6 °F /  8.1 °C 29.75 in /  1007.3 hPa NNW 6.2 mph /  10 km/h 10.0 mph /  16.1 km/h 32 % 0.00 in /  0 mm
15:37 79.2 °F /  26.2 °C 46.8 °F /  8.2 °C 29.75 in /  1007.3 hPa NNW 8.8 mph /  14.2 km/h 10.4 mph /  16.7 km/h 32 % 0.00 in /  0 mm
15:42 79.8 °F /  26.6 °C 46.5 °F /  8.1 °C 29.75 in /  1007.3 hPa NW 8.9 mph /  14.3 km/h 9.2 mph /  14.8 km/h 31 % 0.00 in /  0 mm
15:47 80.4 °F /  26.9 °C 45.2 °F /  7.3 °C 29.75 in /  1007.3 hPa WNW 11.3 mph /  18.2 km/h 13.8 mph /  22.2 km/h 29 % 0.00 in /  0 mm
15:52 80.1 °F /  26.7 °C 45.9 °F /  7.7 °C 29.74 in /  1007 hPa NNW 7.1 mph /  11.4 km/h 7.1 mph /  11.4 km/h 30 % 0.00 in /  0 mm
15:57 80.1 °F /  26.7 °C 45.9 °F /  7.7 °C 29.74 in /  1007 hPa NNW 7.8 mph /  12.6 km/h 12.7 mph /  20.4 km/h 30 % 0.00 in /  0 mm
16:02 80.4 °F /  26.9 °C 46.1 °F /  7.8 °C 29.74 in /  1007 hPa North 6.3 mph /  10.1 km/h 9.2 mph /  14.8 km/h 30 % 0.00 in /  0 mm
16:07 80.4 °F /  26.9 °C 46.1 °F /  7.8 °C 29.74 in /  1007 hPa NW 8.9 mph /  14.3 km/h 12.0 mph /  19.3 km/h 30 % 0.00 in /  0 mm
16:12 80.4 °F /  26.9 °C 46.1 °F /  7.8 °C 29.73 in /  1006.7 hPa North 7.6 mph /  12.2 km/h 12.7 mph /  20.4 km/h 30 % 0.00 in /  0 mm
16:17 81.3 °F /  27.4 °C 46.0 °F /  7.8 °C 29.73 in /  1006.7 hPa WNW 6.0 mph /  9.7 km/h 10.4 mph /  16.7 km/h 29 % 0.00 in /  0 mm
16:22 81.6 °F /  27.6 °C 47.2 °F /  8.4 °C 29.73 in /  1006.7 hPa NW 7.6 mph /  12.2 km/h 14.0 mph /  22.5 km/h 30 % 0.00 in /  0 mm
16:27 81.7 °F /  27.6 °C 46.3 °F /  7.9 °C 29.73 in /  1006.7 hPa North 9.2 mph /  14.8 km/h 11.5 mph /  18.5 km/h 29 % 0.00 in /  0 mm
16:32 81.9 °F /  27.7 °C 44.6 °F /  7 °C 29.73 in /  1006.7 hPa North 8.2 mph /  13.2 km/h 11.5 mph /  18.5 km/h 27 % 0.00 in /  0 mm
16:37 81.2 °F /  27.3 °C 45.9 °F /  7.7 °C 29.73 in /  1006.7 hPa WNW 8.6 mph /  13.8 km/h 11.0 mph /  17.7 km/h 29 % 0.00 in /  0 mm
16:42 80.8 °F /  27.1 °C 44.6 °F /  7 °C 29.72 in /  1006.3 hPa NW 4.0 mph /  6.4 km/h 4.6 mph /  7.4 km/h 28 % 0.00 in /  0 mm
16:47 81.0 °F /  27.2 °C 45.7 °F /  7.6 °C 29.72 in /  1006.3 hPa NW 9.4 mph /  15.1 km/h 15.0 mph /  24.1 km/h 29 % 0.00 in /  0 mm
16:52 81.3 °F /  27.4 °C 46.0 °F /  7.8 °C 29.72 in /  1006.3 hPa WNW 4.6 mph /  7.4 km/h 11.0 mph /  17.7 km/h 29 % 0.00 in /  0 mm
16:57 81.5 °F /  27.5 °C 45.2 °F /  7.3 °C 29.72 in /  1006.3 hPa WNW 7.6 mph /  12.2 km/h 11.5 mph /  18.5 km/h 28 % 0.00 in /  0 mm
17:02 81.8 °F /  27.7 °C 45.5 °F /  7.5 °C 29.72 in /  1006.3 hPa NNW 7.3 mph /  11.7 km/h 11.5 mph /  18.5 km/h 28 % 0.00 in /  0 mm
17:07 82.0 °F /  27.8 °C 45.7 °F /  7.6 °C 29.72 in /  1006.3 hPa NW 6.8 mph /  10.9 km/h 8.0 mph /  12.9 km/h 28 % 0.00 in /  0 mm
17:13 81.7 °F /  27.6 °C 45.4 °F /  7.4 °C 29.72 in /  1006.3 hPa NNW 10.0 mph /  16.1 km/h 11.5 mph /  18.5 km/h 28 % 0.00 in /  0 mm
17:17 82.0 °F /  27.8 °C 44.7 °F /  7.1 °C 29.71 in /  1006 hPa WNW 6.1 mph /  9.8 km/h 9.2 mph /  14.8 km/h 27 % 0.00 in /  0 mm
17:22 82.3 °F /  27.9 °C 45.9 °F /  7.7 °C 29.71 in /  1006 hPa NNW 9.4 mph /  15.1 km/h 11.5 mph /  18.5 km/h 28 % 0.00 in /  0 mm
17:28 82.1 °F /  27.8 °C 45.8 °F /  7.7 °C 29.71 in /  1006 hPa NNW 5.8 mph /  9.3 km/h 9.2 mph /  14.8 km/h 28 % 0.00 in /  0 mm
17:32 82.3 °F /  27.9 °C 45.9 °F /  7.7 °C 29.71 in /  1006 hPa NW 3.8 mph /  6.1 km/h 8.1 mph /  13 km/h 28 % 0.00 in /  0 mm
17:37 82.8 °F /  28.2 °C 45.4 °F /  7.4 °C 29.70 in /  1005.6 hPa North 8.1 mph /  13 km/h 9.0 mph /  14.5 km/h 27 % 0.00 in /  0 mm
17:43 82.0 °F /  27.8 °C 44.7 °F /  7.1 °C 29.70 in /  1005.6 hPa WNW 6.2 mph /  10 km/h 9.2 mph /  14.8 km/h 27 % 0.00 in /  0 mm
17:48 82.2 °F /  27.9 °C 43.9 °F /  6.6 °C 29.70 in /  1005.6 hPa WNW 6.1 mph /  9.8 km/h 8.1 mph /  13 km/h 26 % 0.00 in /  0 mm
17:53 81.9 °F /  27.7 °C 44.6 °F /  7 °C 29.70 in /  1005.6 hPa NW 7.1 mph /  11.4 km/h 10.4 mph /  16.7 km/h 27 % 0.00 in /  0 mm
17:58 81.6 °F /  27.6 °C 44.4 °F /  6.9 °C 29.70 in /  1005.6 hPa West 8.1 mph /  13 km/h 11.5 mph /  18.5 km/h 27 % 0.00 in /  0 mm
18:03 82.3 °F /  27.9 °C 45.0 °F /  7.2 °C 29.70 in /  1005.6 hPa NNW 6.0 mph /  9.7 km/h 8.1 mph /  13 km/h 27 % 0.00 in /  0 mm
18:08 81.5 °F /  27.5 °C 44.3 °F /  6.8 °C 29.70 in /  1005.6 hPa North 4.8 mph /  7.7 km/h 9.2 mph /  14.8 km/h 27 % 0.00 in /  0 mm
18:12 81.7 °F /  27.6 °C 44.5 °F /  6.9 °C 29.70 in /  1005.6 hPa NNW 5.5 mph /  8.9 km/h 10.4 mph /  16.7 km/h 27 % 0.00 in /  0 mm
18:18 82.2 °F /  27.9 °C 44.9 °F /  7.2 °C 29.70 in /  1005.6 hPa North 3.8 mph /  6.1 km/h 10.0 mph /  16.1 km/h 27 % 0.00 in /  0 mm
18:23 82.4 °F /  28 °C 44.1 °F /  6.7 °C 29.70 in /  1005.6 hPa NNE 10.0 mph /  16.1 km/h 11.5 mph /  18.5 km/h 26 % 0.00 in /  0 mm
18:28 82.1 °F /  27.8 °C 43.8 °F /  6.6 °C 29.70 in /  1005.6 hPa NW 11.9 mph /  19.2 km/h 16.1 mph /  25.9 km/h 26 % 0.00 in /  0 mm
18:33 80.6 °F /  27 °C 43.5 °F /  6.4 °C 29.70 in /  1005.6 hPa WNW 6.3 mph /  10.1 km/h 9.2 mph /  14.8 km/h 27 % 0.00 in /  0 mm
18:38 80.7 °F /  27.1 °C 44.6 °F /  7 °C 29.69 in /  1005.3 hPa North 4.3 mph /  6.9 km/h 9.2 mph /  14.8 km/h 28 % 0.00 in /  0 mm
18:43 81.3 °F /  27.4 °C 44.1 °F /  6.7 °C 29.70 in /  1005.6 hPa NW 8.4 mph /  13.5 km/h 11.5 mph /  18.5 km/h 27 % 0.00 in /  0 mm
18:53 81.4 °F /  27.4 °C 45.2 °F /  7.3 °C 29.69 in /  1005.3 hPa WNW 11.5 mph /  18.5 km/h 11.5 mph /  18.5 km/h 28 % 0.00 in /  0 mm
18:58 81.2 °F /  27.3 °C 45.0 °F /  7.2 °C 29.69 in /  1005.3 hPa North 6.3 mph /  10.1 km/h 12.7 mph /  20.4 km/h 28 % 0.00 in /  0 mm
19:03 81.0 °F /  27.2 °C 44.8 °F /  7.1 °C 29.69 in /  1005.3 hPa NNW 5.4 mph /  8.7 km/h 5.8 mph /  9.3 km/h 28 % 0.00 in /  0 mm
19:08 81.0 °F /  27.2 °C 43.9 °F /  6.6 °C 29.69 in /  1005.3 hPa North 6.1 mph /  9.8 km/h 8.1 mph /  13 km/h 27 % 0.00 in /  0 mm
19:13 81.1 °F /  27.3 °C 43.9 °F /  6.6 °C 29.70 in /  1005.6 hPa WNW 8.1 mph /  13 km/h 12.7 mph /  20.4 km/h 27 % 0.00 in /  0 mm
19:18 81.1 °F /  27.3 °C 43.0 °F /  6.1 °C 29.70 in /  1005.6 hPa NNW 5.1 mph /  8.2 km/h 9.2 mph /  14.8 km/h 26 % 0.00 in /  0 mm
19:23 81.3 °F /  27.4 °C 44.1 °F /  6.7 °C 29.70 in /  1005.6 hPa WNW 6.1 mph /  9.8 km/h 9.2 mph /  14.8 km/h 27 % 0.00 in /  0 mm
19:28 81.1 °F /  27.3 °C 43.9 °F /  6.6 °C 29.69 in /  1005.3 hPa NW 8.3 mph /  13.4 km/h 11.5 mph /  18.5 km/h 27 % 0.00 in /  0 mm
19:33 80.8 °F /  27.1 °C 43.7 °F /  6.5 °C 29.70 in /  1005.6 hPa NW 5.8 mph /  9.3 km/h 9.2 mph /  14.8 km/h 27 % 0.00 in /  0 mm
19:38 80.5 °F /  26.9 °C 43.4 °F /  6.3 °C 29.70 in /  1005.6 hPa WNW 3.9 mph /  6.3 km/h 5.8 mph /  9.3 km/h 27 % 0.00 in /  0 mm
19:43 80.5 °F /  26.9 °C 43.4 °F /  6.3 °C 29.70 in /  1005.6 hPa NW 7.8 mph /  12.6 km/h 11.5 mph /  18.5 km/h 27 % 0.00 in /  0 mm
19:48 80.2 °F /  26.8 °C 44.1 °F /  6.7 °C 29.70 in /  1005.6 hPa NW 4.6 mph /  7.4 km/h 9.2 mph /  14.8 km/h 28 % 0.00 in /  0 mm
19:53 79.9 °F /  26.6 °C 43.9 °F /  6.6 °C 29.70 in /  1005.6 hPa NW 6.9 mph /  11.1 km/h 11.5 mph /  18.5 km/h 28 % 0.00 in /  0 mm
19:58 79.7 °F /  26.5 °C 43.7 °F /  6.5 °C 29.70 in /  1005.6 hPa NW 7.9 mph /  12.7 km/h 9.2 mph /  14.8 km/h 28 % 0.00 in /  0 mm
20:03 79.6 °F /  26.4 °C 43.6 °F /  6.4 °C 29.70 in /  1005.6 hPa NW 5.1 mph /  8.2 km/h 9.2 mph /  14.8 km/h 28 % 0.00 in /  0 mm
20:08 79.4 °F /  26.3 °C 43.4 °F /  6.3 °C 29.69 in /  1005.3 hPa WNW 6.9 mph /  11.1 km/h 10.4 mph /  16.7 km/h 28 % 0.00 in /  0 mm
20:13 79.0 °F /  26.1 °C 43.1 °F /  6.2 °C 29.70 in /  1005.6 hPa NW 5.3 mph /  8.5 km/h 8.1 mph /  13 km/h 28 % 0.00 in /  0 mm
20:18 78.6 °F /  25.9 °C 43.7 °F /  6.5 °C 29.70 in /  1005.6 hPa North 2.6 mph /  4.2 km/h 3.5 mph /  5.6 km/h 29 % 0.00 in /  0 mm
20:23 78.3 °F /  25.7 °C 43.4 °F /  6.3 °C 29.70 in /  1005.6 hPa NW 3.1 mph /  5 km/h 3.5 mph /  5.6 km/h 29 % 0.00 in /  0 mm
20:28 78.0 °F /  25.6 °C 43.2 °F /  6.2 °C 29.70 in /  1005.6 hPa NW 4.5 mph /  7.2 km/h 8.1 mph /  13 km/h 29 % 0.00 in /  0 mm
20:33 77.7 °F /  25.4 °C 42.9 °F /  6.1 °C 29.70 in /  1005.6 hPa NW 4.0 mph /  6.4 km/h 9.2 mph /  14.8 km/h 29 % 0.00 in /  0 mm
20:38 77.4 °F /  25.2 °C 42.6 °F /  5.9 °C 29.70 in /  1005.6 hPa NW 3.3 mph /  5.3 km/h 5.8 mph /  9.3 km/h 29 % 0.00 in /  0 mm
20:43 77.1 °F /  25.1 °C 43.3 °F /  6.3 °C 29.70 in /  1005.6 hPa North 3.7 mph /  6 km/h 5.8 mph /  9.3 km/h 30 % 0.00 in /  0 mm
20:48 77.0 °F /  25 °C 43.2 °F /  6.2 °C 29.70 in /  1005.6 hPa NW 5.1 mph /  8.2 km/h 6.9 mph /  11.1 km/h 30 % 0.00 in /  0 mm
20:53 76.9 °F /  24.9 °C 43.1 °F /  6.2 °C 29.70 in /  1005.6 hPa NW 3.9 mph /  6.3 km/h 6.9 mph /  11.1 km/h 30 % 0.00 in /  0 mm
20:58 76.7 °F /  24.8 °C 42.9 °F /  6.1 °C 29.70 in /  1005.6 hPa NW 2.5 mph /  4 km/h 3.5 mph /  5.6 km/h 30 % 0.00 in /  0 mm
21:03 76.5 °F /  24.7 °C 42.7 °F /  5.9 °C 29.70 in /  1005.6 hPa NW 4.5 mph /  7.2 km/h 4.6 mph /  7.4 km/h 30 % 0.00 in /  0 mm
21:08 76.5 °F /  24.7 °C 42.7 °F /  5.9 °C 29.70 in /  1005.6 hPa North 4.5 mph /  7.2 km/h 6.9 mph /  11.1 km/h 30 % 0.00 in /  0 mm
21:13 76.3 °F /  24.6 °C 43.4 °F /  6.3 °C 29.69 in /  1005.3 hPa NW 4.4 mph /  7.1 km/h 5.8 mph /  9.3 km/h 31 % 0.00 in /  0 mm
21:18 76.1 °F /  24.5 °C 43.3 °F /  6.3 °C 29.69 in /  1005.3 hPa NW 3.1 mph /  5 km/h 4.0 mph /  6.4 km/h 31 % 0.00 in /  0 mm
21:23 75.9 °F /  24.4 °C 43.1 °F /  6.2 °C 29.69 in /  1005.3 hPa North 2.1 mph /  3.4 km/h 3.5 mph /  5.6 km/h 31 % 0.00 in /  0 mm
21:28 75.6 °F /  24.2 °C 43.7 °F /  6.5 °C 29.69 in /  1005.3 hPa Calm   1.2 mph /  1.9 km/h 32 % 0.00 in /  0 mm
21:33 75.1 °F /  23.9 °C 44.0 °F /  6.7 °C 29.69 in /  1005.3 hPa NW 0.1 mph /  0.2 km/h 1.2 mph /  1.9 km/h 33 % 0.00 in /  0 mm
21:38 74.4 °F /  23.6 °C 43.4 °F /  6.3 °C 29.69 in /  1005.3 hPa NW 1.0 mph /  1.6 km/h 2.0 mph /  3.2 km/h 33 % 0.00 in /  0 mm
21:43 73.8 °F /  23.2 °C 43.7 °F /  6.5 °C 29.69 in /  1005.3 hPa NW 3.4 mph /  5.5 km/h 3.5 mph /  5.6 km/h 34 % 0.00 in /  0 mm
21:48 73.5 °F /  23.1 °C 44.2 °F /  6.8 °C 29.69 in /  1005.3 hPa NW 0.4 mph /  0.6 km/h 3.5 mph /  5.6 km/h 35 % 0.00 in /  0 mm
21:53 72.8 °F /  22.7 °C 44.3 °F /  6.8 °C 29.69 in /  1005.3 hPa North 4.3 mph /  6.9 km/h 6.9 mph /  11.1 km/h 36 % 0.00 in /  0 mm
21:58 71.5 °F /  21.9 °C 47.8 °F /  8.8 °C 29.70 in /  1005.6 hPa SSW 4.3 mph /  6.9 km/h 6.9 mph /  11.1 km/h 43 % 0.00 in /  0 mm
22:03 70.3 °F /  21.3 °C 50.2 °F /  10.1 °C 29.70 in /  1005.6 hPa SSE 5.6 mph /  9 km/h 10.4 mph /  16.7 km/h 49 % 0.00 in /  0 mm
22:08 69.2 °F /  20.7 °C 50.8 °F /  10.4 °C 29.70 in /  1005.6 hPa South 4.7 mph /  7.6 km/h 6.0 mph /  9.7 km/h 52 % 0.00 in /  0 mm
22:13 68.4 °F /  20.2 °C 50.6 °F /  10.3 °C 29.70 in /  1005.6 hPa South 4.6 mph /  7.4 km/h 6.9 mph /  11.1 km/h 53 % 0.00 in /  0 mm
22:18 67.9 °F /  19.9 °C 51.1 °F /  10.6 °C 29.70 in /  1005.6 hPa South 4.8 mph /  7.7 km/h 5.0 mph /  8 km/h 55 % 0.00 in /  0 mm
22:41 66.4 °F /  19.1 °C 51.6 °F /  10.9 °C 29.69 in /  1005.3 hPa South 5.8 mph /  9.3 km/h 5.8 mph /  9.3 km/h 59 % 0.00 in /  0 mm
22:46 66.0 °F /  18.9 °C 51.3 °F /  10.7 °C 29.69 in /  1005.3 hPa South 5.8 mph /  9.3 km/h 5.8 mph /  9.3 km/h 59 % 0.00 in /  0 mm
22:51 65.7 °F /  18.7 °C 51.4 °F /  10.8 °C 29.69 in /  1005.3 hPa South 2.5 mph /  4 km/h 3.5 mph /  5.6 km/h 60 % 0.00 in /  0 mm
22:56 65.4 °F /  18.6 °C 51.1 °F /  10.6 °C 29.69 in /  1005.3 hPa Calm     60 % 0.00 in /  0 mm
23:01 65.1 °F /  18.4 °C 51.3 °F /  10.7 °C 29.68 in /  1005 hPa South 1.4 mph /  2.3 km/h 3.5 mph /  5.6 km/h 61 % 0.00 in /  0 mm
23:06 64.8 °F /  18.2 °C 51.5 °F /  10.8 °C 29.68 in /  1005 hPa Calm   1.2 mph /  1.9 km/h 62 % 0.00 in /  0 mm
23:11 64.5 °F /  18.1 °C 51.2 °F /  10.7 °C 29.68 in /  1005 hPa South 2.0 mph /  3.2 km/h 3.5 mph /  5.6 km/h 62 % 0.00 in /  0 mm
23:16 64.2 °F /  17.9 °C 51.3 °F /  10.7 °C 29.68 in /  1005 hPa Calm   2.3 mph /  3.7 km/h 63 % 0.00 in /  0 mm
23:21 64.0 °F /  17.8 °C 51.6 °F /  10.9 °C 29.68 in /  1005 hPa South 0.5 mph /  0.8 km/h 2.0 mph /  3.2 km/h 64 % 0.00 in /  0 mm
23:26 63.8 °F /  17.7 °C 51.8 °F /  11 °C 29.67 in /  1004.6 hPa South 1.5 mph /  2.4 km/h 3.5 mph /  5.6 km/h 65 % 0.00 in /  0 mm
23:31 63.6 °F /  17.6 °C 51.6 °F /  10.9 °C 29.67 in /  1004.6 hPa Calm     65 % 0.00 in /  0 mm
23:36 63.2 °F /  17.3 °C 51.2 °F /  10.7 °C 29.67 in /  1004.6 hPa Calm     65 % 0.00 in /  0 mm
23:41 62.8 °F /  17.1 °C 51.3 °F /  10.7 °C 29.67 in /  1004.6 hPa Calm     66 % 0.00 in /  0 mm
23:46 62.5 °F /  16.9 °C 51.0 °F /  10.6 °C 29.66 in /  1004.3 hPa Calm     66 % 0.00 in /  0 mm
23:51 62.1 °F /  16.7 °C 51.0 °F /  10.6 °C 29.66 in /  1004.3 hPa Calm     67 % 0.00 in /  0 mm
23:56 61.3 °F /  16.3 °C 50.6 °F /  10.3 °C 29.66 in /  1004.3 hPa South 1.5 mph /  2.4 km/h 2.3 mph /  3.7 km/h 68 % 0.00 in /  0 mm
Ararat Weather
Compliments of Weather Underground - 2.5 mb
Click here to send mail.


ABOUT

Live weather data from Ararat, Victoria, Australia, 3377
Data uploaded from Cumulus every 5 minutes to Weather Underground.
This site then downloads the raw data for formatting and display.
Metric and imperial data can be displayed. Graphs and historical data available.
Includes Sun and Moon times and rain image live from BOM.

Check out Ararat Weather on Facebook, Twitter and Google +

Help support ongoing costs by checking out the ads





Follow @AraratWeather